Time;durP1;ratioP1;P1;durP2;ratioP2;P2;SDS_P1;SDS_P2;PMS_P1;PMS_P2;Temp;Humidity;BMP_temperature;BMP_pressure;BME280_temperature;BME280_humidity;BME280_pressure;Samples;Min_cycle;Max_cycle;Signal;HPM_P1;HPM_P2
2022/05/03 00:01:24;;;;;;;;;53.25;44.50;;;;;;;;5034733;28;11297;-75
2022/05/03 00:03:57;;;;;;;;;39.25;37.25;;;;;;;;5032749;28;11606;-75
2022/05/03 00:06:31;;;;;;;;;49.75;41.75;;;;;;;;5037770;28;11657;-74
2022/05/03 00:09:04;;;;;;;;;47.50;42.75;;;;;;;;5040492;28;11545;-74
2022/05/03 00:11:34;;;;;;;;;44.25;38.00;;;;;;;;5056195;28;11714;-74
2022/05/03 00:14:07;;;;;;;;;50.75;41.00;;;;;;;;5036221;28;11667;-74
2022/05/03 00:16:36;;;;;;;;;44.25;38.25;;;;;;;;5036737;28;11670;-74
2022/05/03 00:19:06;;;;;;;;;47.25;41.25;;;;;;;;5042334;28;11581;-74
2022/05/03 00:21:36;;;;;;;;;47.25;39.00;;;;;;;;5041292;28;11580;-74
2022/05/03 00:24:05;;;;;;;;;36.50;36.00;;;;;;;;5046499;28;11547;-74
2022/05/03 00:26:33;;;;;;;;;37.50;35.25;;;;;;;;5043741;28;12533;-74
2022/05/03 00:29:01;;;;;;;;;35.75;35.50;;;;;;;;5039769;28;11392;-74
2022/05/03 00:31:29;;;;;;;;;41.25;34.25;;;;;;;;5046600;28;11653;-74
2022/05/03 00:33:57;;;;;;;;;41.75;38.75;;;;;;;;5045520;28;12485;-74
2022/05/03 00:36:25;;;;;;;;;39.50;34.25;;;;;;;;5043392;28;12956;-74
2022/05/03 00:38:54;;;;;;;;;39.75;36.00;;;;;;;;5035338;28;11708;-75
2022/05/03 00:41:27;;;;;;;;;34.00;33.00;;;;;;;;5045711;28;11607;-75
2022/05/03 00:44:03;;;;;;;;;29.75;27.75;;;;;;;;5043636;28;12276;-75
2022/05/03 00:46:38;;;;;;;;;26.50;23.50;;;;;;;;5049935;28;11558;-76
2022/05/03 00:49:15;;;;;;;;;34.25;31.75;;;;;;;;5037296;28;11653;-75
2022/05/03 00:51:48;;;;;;;;;34.75;33.00;;;;;;;;5042527;28;11686;-75
2022/05/03 00:54:20;;;;;;;;;39.25;33.25;;;;;;;;5043495;28;11671;-75
2022/05/03 00:56:59;;;;;;;;;29.75;29.25;;;;;;;;5039676;28;11520;-76
2022/05/03 00:59:47;;;;;;;;;30.75;28.25;;;;;;;;5041526;28;11527;-75
2022/05/03 01:02:16;;;;;;;;;31.75;30.75;;;;;;;;5043247;28;11475;-75
2022/05/03 01:04:59;;;;;;;;;37.00;35.75;;;;;;;;5038401;28;11568;-75
2022/05/03 01:07:29;;;;;;;;;33.25;32.25;;;;;;;;5039564;28;12455;-75
2022/05/03 01:10:06;;;;;;;;;31.50;30.00;;;;;;;;5031711;28;11717;-75
2022/05/03 01:12:50;;;;;;;;;29.00;26.50;;;;;;;;5037588;28;11591;-75
2022/05/03 01:15:21;;;;;;;;;41.50;32.00;;;;;;;;5037583;28;11661;-75
2022/05/03 01:17:59;;;;;;;;;36.75;34.00;;;;;;;;5036902;28;11681;-75
2022/05/03 01:20:31;;;;;;;;;29.75;27.50;;;;;;;;5035612;28;11679;-75
2022/05/03 01:23:26;;;;;;;;;37.00;33.50;;;;;;;;5034870;28;11737;-75
2022/05/03 01:26:10;;;;;;;;;41.50;35.00;;;;;;;;5037964;28;11741;-75
2022/05/03 01:28:56;;;;;;;;;38.75;36.75;;;;;;;;5036244;28;11785;-75
2022/05/03 01:31:25;;;;;;;;;35.00;27.75;;;;;;;;5036535;28;11534;-74
2022/05/03 01:33:52;;;;;;;;;33.50;30.00;;;;;;;;5068395;28;12621;-75
2022/05/03 01:36:29;;;;;;;;;32.25;32.25;;;;;;;;5043279;28;11625;-75
2022/05/03 01:39:03;;;;;;;;;39.75;36.25;;;;;;;;5035004;28;11724;-75
2022/05/03 01:41:39;;;;;;;;;32.00;32.00;;;;;;;;5039001;28;11688;-75
2022/05/03 01:44:11;;;;;;;;;42.75;34.75;;;;;;;;5035461;28;11628;-75
2022/05/03 01:46:39;;;;;;;;;37.25;34.50;;;;;;;;5034072;28;11773;-74
2022/05/03 01:52:16;;;;;;;;;39.00;34.75;;;;;;;;5029902;28;11630;-75
2022/05/03 01:55:15;;;;;;;;;32.75;31.25;;;;;;;;5033382;28;11745;-75
2022/05/03 01:57:58;;;;;;;;;36.25;31.00;;;;;;;;5013034;28;11638;-75
2022/05/03 02:00:28;;;;;;;;;34.00;33.75;;;;;;;;5026650;28;11536;-75
2022/05/03 02:03:02;;;;;;;;;40.50;33.50;;;;;;;;5034041;28;11618;-75
2022/05/03 02:05:41;;;;;;;;;35.50;30.00;;;;;;;;5042398;28;12593;-75
2022/05/03 02:08:12;;;;;;;;;32.50;31.75;;;;;;;;5044411;28;11634;-75
2022/05/03 02:10:59;;;;;;;;;28.50;26.50;;;;;;;;5043726;28;11619;-75
2022/05/03 02:16:59;;;;;;;;;38.50;37.25;;;;;;;;5039248;28;11567;-74
2022/05/03 02:19:41;;;;;;;;;41.00;37.00;;;;;;;;5033835;28;11667;-74
2022/05/03 02:22:25;;;;;;;;;35.00;31.25;;;;;;;;5044484;28;11622;-74
2022/05/03 02:25:00;;;;;;;;;30.25;28.75;;;;;;;;5030449;28;11602;-75
2022/05/03 02:27:29;;;;;;;;;37.75;31.75;;;;;;;;5035400;28;11607;-75
2022/05/03 02:29:59;;;;;;;;;40.00;33.00;;;;;;;;5039502;28;11772;-75
2022/05/03 02:32:35;;;;;;;;;37.75;35.50;;;;;;;;5043775;28;11586;-75
2022/05/03 02:35:05;;;;;;;;;35.00;35.00;;;;;;;;5040273;28;11604;-75
2022/05/03 02:37:36;;;;;;;;;43.00;33.75;;;;;;;;5031658;28;11731;-75
2022/05/03 02:40:07;;;;;;;;;46.00;40.00;;;;;;;;5036809;28;11620;-75
2022/05/03 02:42:35;;;;;;;;;33.25;29.25;;;;;;;;5040088;28;11620;-74
2022/05/03 02:45:04;;;;;;;;;52.75;42.00;;;;;;;;5039308;28;11638;-75
2022/05/03 02:47:42;;;;;;;;;48.00;38.50;;;;;;;;5045192;28;11621;-75
2022/05/03 02:50:11;;;;;;;;;36.25;34.50;;;;;;;;5036738;28;11600;-75
2022/05/03 02:52:43;;;;;;;;;45.50;39.25;;;;;;;;5044437;28;11611;-75
2022/05/03 02:55:20;;;;;;;;;35.75;34.25;;;;;;;;5035195;28;11611;-75
2022/05/03 02:57:55;;;;;;;;;40.75;37.00;;;;;;;;5041475;28;12439;-75
2022/05/03 03:03:37;;;;;;;;;37.25;36.00;;;;;;;;5032281;28;11608;-75
2022/05/03 03:06:05;;;;;;;;;40.00;36.00;;;;;;;;5032362;28;11621;-75
2022/05/03 03:08:43;;;;;;;;;41.50;37.25;;;;;;;;5036759;28;11623;-75
2022/05/03 03:11:16;;;;;;;;;40.00;36.25;;;;;;;;5033244;28;11621;-75
2022/05/03 03:14:06;;;;;;;;;39.00;37.25;;;;;;;;5039209;28;12490;-75
2022/05/03 03:16:34;;;;;;;;;39.00;32.75;;;;;;;;5037173;28;11600;-75
2022/05/03 03:19:14;;;;;;;;;47.75;42.00;;;;;;;;5038231;28;11598;-74
2022/05/03 03:21:43;;;;;;;;;43.75;41.00;;;;;;;;5043864;28;11652;-74
2022/05/03 03:24:11;;;;;;;;;46.75;40.25;;;;;;;;5037059;28;11727;-75
2022/05/03 03:26:39;;;;;;;;;44.50;38.25;;;;;;;;5036137;28;11783;-74
2022/05/03 03:29:09;;;;;;;;;42.50;39.00;;;;;;;;5028359;28;12388;-75
2022/05/03 03:31:38;;;;;;;;;49.50;41.75;;;;;;;;5032827;28;11558;-75
2022/05/03 03:34:07;;;;;;;;;38.50;36.75;;;;;;;;5033058;28;11656;-75
2022/05/03 03:36:35;;;;;;;;;50.75;41.00;;;;;;;;5044826;28;11663;-75
2022/05/03 03:39:02;;;;;;;;;28.00;26.50;;;;;;;;5046390;28;11608;-75
2022/05/03 03:41:30;;;;;;;;;31.00;28.25;;;;;;;;5037628;28;11598;-75
2022/05/03 03:43:58;;;;;;;;;39.25;34.25;;;;;;;;5037322;28;11604;-75
2022/05/03 03:46:25;;;;;;;;;39.75;35.50;;;;;;;;5035307;28;11752;-75
2022/05/03 03:48:53;;;;;;;;;32.00;25.50;;;;;;;;5065461;28;11653;-75
2022/05/03 03:51:22;;;;;;;;;40.25;38.50;;;;;;;;5037844;28;11581;-74
2022/05/03 03:53:49;;;;;;;;;31.00;31.00;;;;;;;;5031329;28;11603;-75
2022/05/03 03:56:17;;;;;;;;;40.00;37.50;;;;;;;;5038002;28;11602;-75
2022/05/03 03:58:44;;;;;;;;;43.75;35.25;;;;;;;;5039976;28;11611;-75
2022/05/03 04:01:12;;;;;;;;;49.00;40.25;;;;;;;;5036104;28;11683;-76
2022/05/03 04:03:39;;;;;;;;;48.25;40.25;;;;;;;;5027610;28;12233;-74
2022/05/03 04:06:07;;;;;;;;;53.50;45.50;;;;;;;;5028773;28;12438;-75
2022/05/03 04:08:35;;;;;;;;;46.25;40.25;;;;;;;;5036399;28;12294;-75
2022/05/03 04:11:15;;;;;;;;;53.75;43.50;;;;;;;;5034636;28;12387;-74
2022/05/03 04:13:42;;;;;;;;;44.25;38.50;;;;;;;;5035885;28;11562;-74
2022/05/03 04:16:10;;;;;;;;;49.00;41.50;;;;;;;;5038693;28;11895;-75
2022/05/03 04:18:45;;;;;;;;;54.50;42.50;;;;;;;;5030426;28;11626;-74
2022/05/03 04:21:14;;;;;;;;;51.00;42.00;;;;;;;;5032157;28;11606;-76
2022/05/03 04:23:44;;;;;;;;;47.25;41.75;;;;;;;;5050249;28;11750;-75
2022/05/03 04:26:12;;;;;;;;;38.75;37.25;;;;;;;;5034497;28;11692;-75
2022/05/03 04:28:39;;;;;;;;;42.25;39.75;;;;;;;;5024652;28;11637;-74
2022/05/03 04:31:07;;;;;;;;;39.50;35.50;;;;;;;;5032759;28;11584;-77
2022/05/03 04:33:34;;;;;;;;;49.00;43.25;;;;;;;;5030512;28;11745;-78
2022/05/03 04:36:01;;;;;;;;;50.25;40.75;;;;;;;;5041303;28;11592;-80
2022/05/03 04:38:28;;;;;;;;;48.75;38.25;;;;;;;;5035514;28;11630;-79
2022/05/03 04:41:01;;;;;;;;;51.50;43.50;;;;;;;;5035656;28;11642;-77
2022/05/03 04:43:29;;;;;;;;;52.00;44.00;;;;;;;;5038578;28;11591;-80
2022/05/03 04:45:56;;;;;;;;;51.50;44.50;;;;;;;;5040402;28;11599;-81
2022/05/03 04:48:23;;;;;;;;;54.25;45.00;;;;;;;;5027936;28;11640;-77
2022/05/03 04:50:50;;;;;;;;;56.25;46.25;;;;;;;;5036596;28;11782;-77
2022/05/03 04:53:18;;;;;;;;;56.50;42.75;;;;;;;;5031496;28;11642;-76
2022/05/03 04:55:45;;;;;;;;;49.00;41.50;;;;;;;;5038826;28;11614;-79
2022/05/03 04:58:14;;;;;;;;;47.00;42.25;;;;;;;;5049376;28;11605;-81
2022/05/03 05:00:41;;;;;;;;;46.25;40.75;;;;;;;;5039634;28;11577;-76
2022/05/03 05:03:09;;;;;;;;;62.25;46.25;;;;;;;;5040209;28;11626;-75
2022/05/03 05:05:36;;;;;;;;;58.25;47.25;;;;;;;;5038207;28;11610;-79
2022/05/03 05:08:05;;;;;;;;;58.00;45.50;;;;;;;;5040998;28;11602;-77
2022/05/03 05:10:32;;;;;;;;;60.00;48.75;;;;;;;;5040453;28;11625;-78
2022/05/03 05:13:00;;;;;;;;;57.25;40.75;;;;;;;;5043839;28;12427;-77
2022/05/03 05:15:30;;;;;;;;;50.25;43.25;;;;;;;;5043711;28;11601;-76
2022/05/03 05:17:59;;;;;;;;;62.00;50.25;;;;;;;;5039486;28;11563;-77
2022/05/03 05:20:27;;;;;;;;;56.50;44.75;;;;;;;;5039231;28;11715;-76
2022/05/03 05:22:54;;;;;;;;;60.50;48.00;;;;;;;;5043304;28;11618;-79
2022/05/03 05:25:22;;;;;;;;;56.50;44.75;;;;;;;;5044269;28;11606;-81
2022/05/03 05:27:49;;;;;;;;;47.75;43.25;;;;;;;;5040883;28;11632;-83
2022/05/03 05:30:16;;;;;;;;;57.75;46.25;;;;;;;;5037023;28;11642;-80
2022/05/03 05:32:46;;;;;;;;;61.50;47.00;;;;;;;;5040242;28;11609;-80
2022/05/03 05:35:14;;;;;;;;;58.00;47.00;;;;;;;;5044413;28;12038;-79
2022/05/03 05:37:42;;;;;;;;;63.75;49.75;;;;;;;;5039927;28;11604;-75
2022/05/03 05:40:10;;;;;;;;;61.00;45.25;;;;;;;;5044685;28;11628;-78
2022/05/03 05:42:37;;;;;;;;;61.50;46.25;;;;;;;;5049589;28;11639;-75
2022/05/03 05:45:06;;;;;;;;;60.25;49.00;;;;;;;;5040550;28;11642;-79
2022/05/03 05:47:33;;;;;;;;;59.25;48.75;;;;;;;;5040165;28;11616;-81
2022/05/03 05:50:02;;;;;;;;;60.25;46.25;;;;;;;;5036826;28;11602;-84
2022/05/03 05:55:14;;;;;;;;;53.75;45.75;;;;;;;;5042235;28;11597;-76
2022/05/03 05:57:42;;;;;;;;;56.75;45.00;;;;;;;;5048343;28;11672;-77
2022/05/03 06:00:10;;;;;;;;;51.50;43.50;;;;;;;;5045213;28;11616;-80
2022/05/03 06:02:38;;;;;;;;;59.75;48.25;;;;;;;;5042604;28;11609;-77
2022/05/03 06:05:08;;;;;;;;;50.50;41.50;;;;;;;;5035238;28;11716;-77
2022/05/03 06:07:35;;;;;;;;;46.50;39.75;;;;;;;;5040592;28;11623;-77
2022/05/03 06:10:04;;;;;;;;;60.00;48.50;;;;;;;;5032250;28;12415;-82
2022/05/03 06:12:31;;;;;;;;;56.25;45.75;;;;;;;;5033504;28;11615;-81
2022/05/03 06:14:58;;;;;;;;;53.25;44.75;;;;;;;;5045317;28;11594;-86
2022/05/03 06:17:26;;;;;;;;;60.25;47.25;;;;;;;;5042314;28;11579;-85
2022/05/03 06:19:53;;;;;;;;;59.25;45.25;;;;;;;;5039064;28;11710;-79
2022/05/03 06:22:22;;;;;;;;;59.75;48.75;;;;;;;;5046458;28;11608;-85
2022/05/03 06:24:49;;;;;;;;;41.75;39.75;;;;;;;;5046119;28;11600;-84
2022/05/03 06:27:16;;;;;;;;;54.50;44.25;;;;;;;;5039850;28;11739;-83
2022/05/03 06:29:44;;;;;;;;;53.50;44.25;;;;;;;;5034311;28;11595;-81
2022/05/03 06:32:12;;;;;;;;;54.00;45.50;;;;;;;;5042194;28;11566;-80
2022/05/03 06:34:39;;;;;;;;;54.00;45.50;;;;;;;;5031393;28;11634;-79
2022/05/03 06:37:07;;;;;;;;;53.25;41.75;;;;;;;;5036941;28;12945;-82
2022/05/03 06:39:37;;;;;;;;;56.50;44.25;;;;;;;;5034032;28;11596;-78
2022/05/03 06:42:07;;;;;;;;;48.75;41.50;;;;;;;;5040658;28;11682;-80
2022/05/03 06:44:34;;;;;;;;;52.25;43.00;;;;;;;;5035791;28;11630;-81
2022/05/03 06:47:01;;;;;;;;;54.00;44.25;;;;;;;;5039865;28;11590;-81
2022/05/03 06:49:29;;;;;;;;;54.50;44.25;;;;;;;;5043066;28;11608;-81
2022/05/03 06:51:58;;;;;;;;;56.75;46.75;;;;;;;;5040766;28;11609;-79
2022/05/03 06:54:25;;;;;;;;;61.00;48.25;;;;;;;;5033693;28;11607;-80
2022/05/03 06:56:54;;;;;;;;;63.00;49.25;;;;;;;;5031426;28;11633;-82
2022/05/03 06:59:21;;;;;;;;;47.50;41.50;;;;;;;;5030740;28;12652;-85
2022/05/03 07:01:49;;;;;;;;;46.25;40.50;;;;;;;;5040696;28;11552;-80
2022/05/03 07:04:16;;;;;;;;;51.75;44.00;;;;;;;;5040498;28;11744;-78
2022/05/03 07:06:44;;;;;;;;;54.75;44.25;;;;;;;;5040824;28;11625;-80
2022/05/03 07:09:11;;;;;;;;;50.50;41.00;;;;;;;;5031088;28;11707;-79
2022/05/03 07:11:38;;;;;;;;;55.75;47.00;;;;;;;;5035964;28;11540;-80
2022/05/03 07:14:07;;;;;;;;;62.00;50.00;;;;;;;;5035381;28;11637;-79
2022/05/03 07:16:34;;;;;;;;;63.75;51.25;;;;;;;;5043685;28;11741;-80
2022/05/03 07:24:31;;;;;;;;;64.00;50.50;;;;;;;;5036465;28;11609;-80
2022/05/03 07:26:58;;;;;;;;;63.00;45.75;;;;;;;;5039622;28;11629;-77
2022/05/03 07:29:27;;;;;;;;;49.75;43.00;;;;;;;;5036653;28;11556;-81
2022/05/03 07:31:54;;;;;;;;;49.00;42.25;;;;;;;;5037752;28;11488;-80
2022/05/03 07:34:22;;;;;;;;;47.75;41.75;;;;;;;;5032369;28;11550;-82
2022/05/03 07:36:49;;;;;;;;;52.00;39.75;;;;;;;;5031677;28;12345;-79
2022/05/03 07:39:16;;;;;;;;;40.75;37.00;;;;;;;;5040096;28;11555;-82
2022/05/03 07:41:43;;;;;;;;;41.50;38.50;;;;;;;;5050675;28;11108;-83
2022/05/03 07:44:11;;;;;;;;;35.50;32.75;;;;;;;;5034701;28;11085;-77
2022/05/03 07:46:39;;;;;;;;;37.50;34.00;;;;;;;;5038491;28;10855;-78
2022/05/03 07:49:09;;;;;;;;;34.00;34.00;;;;;;;;5036466;28;10799;-77
2022/05/03 07:51:36;;;;;;;;;29.50;28.25;;;;;;;;5045142;28;10598;-84
2022/05/03 07:54:04;;;;;;;;;30.50;27.25;;;;;;;;5031770;28;10560;-81
2022/05/03 07:56:31;;;;;;;;;27.00;27.00;;;;;;;;5033338;28;10249;-83
2022/05/03 07:58:58;;;;;;;;;27.00;27.00;;;;;;;;5035494;28;10463;-82
2022/05/03 08:01:26;;;;;;;;;23.00;22.50;;;;;;;;5041346;28;10355;-83
2022/05/03 08:03:54;;;;;;;;;24.25;24.25;;;;;;;;5034811;28;10144;-81
2022/05/03 08:06:23;;;;;;;;;30.00;26.50;;;;;;;;5039583;28;10601;-83
2022/05/03 08:08:52;;;;;;;;;22.50;21.50;;;;;;;;5044061;28;9986;-84
2022/05/03 08:11:19;;;;;;;;;20.75;20.25;;;;;;;;5032857;28;9659;-81
2022/05/03 08:13:48;;;;;;;;;22.00;22.00;;;;;;;;5041017;28;9565;-81
2022/05/03 08:16:19;;;;;;;;;22.00;22.00;;;;;;;;5034373;28;11007;-83
2022/05/03 08:18:46;;;;;;;;;25.67;22.33;;;;;;;;5035055;28;9409;-85
2022/05/03 08:21:15;;;;;;;;;22.00;21.67;;;;;;;;5030832;28;9967;-83
2022/05/03 08:23:43;;;;;;;;;20.00;20.00;;;;;;;;5038564;28;9374;-83
2022/05/03 08:26:11;;;;;;;;;29.00;27.00;;;;;;;;5033551;28;9220;-83
2022/05/03 08:28:39;;;;;;;;;20.67;20.67;;;;;;;;5038134;28;9319;-85
2022/05/03 08:31:07;;;;;;;;;23.67;23.00;;;;;;;;5046679;28;9179;-83
2022/05/03 08:33:35;;;;;;;;;15.67;14.00;;;;;;;;5067203;28;9148;-83
2022/05/03 08:36:03;;;;;;;;;27.00;24.67;;;;;;;;5043887;28;9103;-82
2022/05/03 08:44:02;;;;;;;;;19.50;19.50;;;;;;;;5042095;28;8853;-80
2022/05/03 08:46:33;;;;;;;;;21.25;21.25;;;;;;;;5041676;28;8899;-83
2022/05/03 08:49:03;;;;;;;;;23.25;23.25;;;;;;;;5040300;28;9614;-82
2022/05/03 08:51:31;;;;;;;;;22.00;22.00;;;;;;;;5037668;28;8876;-83
2022/05/03 08:54:01;;;;;;;;;21.00;19.00;;;;;;;;5044315;28;8886;-82
2022/05/03 08:56:30;;;;;;;;;23.25;20.75;;;;;;;;5038959;28;8859;-83
2022/05/03 08:58:58;;;;;;;;;19.25;19.00;;;;;;;;5036617;28;8896;-83
2022/05/03 09:01:25;;;;;;;;;18.75;18.25;;;;;;;;5032265;28;8824;-85
2022/05/03 09:03:53;;;;;;;;;14.75;14.75;;;;;;;;5040859;28;8966;-85
2022/05/03 09:06:20;;;;;;;;;18.50;16.25;;;;;;;;5038389;28;8885;-84
2022/05/03 09:08:51;;;;;;;;;15.25;14.00;;;;;;;;5039547;28;8869;-82
2022/05/03 09:11:20;;;;;;;;;19.00;15.75;;;;;;;;5044679;28;8979;-82
2022/05/03 09:13:48;;;;;;;;;18.50;15.25;;;;;;;;5031585;28;8872;-79
2022/05/03 09:16:16;;;;;;;;;14.50;14.50;;;;;;;;5034511;28;8865;-79
2022/05/03 09:18:44;;;;;;;;;12.75;12.75;;;;;;;;5031350;28;8865;-85
2022/05/03 09:24:08;;;;;;;;;15.00;13.75;;;;;;;;5026149;28;8820;-79
2022/05/03 09:26:37;;;;;;;;;11.50;11.25;;;;;;;;5040169;28;8876;-80
2022/05/03 09:29:07;;;;;;;;;15.50;15.50;;;;;;;;5034158;28;8958;-81
2022/05/03 09:31:37;;;;;;;;;9.25;7.75;;;;;;;;5053369;28;8819;-81
2022/05/03 09:34:07;;;;;;;;;18.25;12.00;;;;;;;;5045240;28;9658;-81
2022/05/03 09:36:47;;;;;;;;;13.50;11.50;;;;;;;;5043745;28;8861;-80
2022/05/03 09:39:23;;;;;;;;;12.25;11.25;;;;;;;;5034325;28;8926;-81
2022/05/03 09:42:07;;;;;;;;;12.50;11.75;;;;;;;;5044030;28;8914;-80
2022/05/03 09:44:36;;;;;;;;;12.00;10.00;;;;;;;;5044412;28;8939;-80
2022/05/03 09:47:09;;;;;;;;;12.50;12.50;;;;;;;;5053144;28;8875;-80
2022/05/03 09:49:37;;;;;;;;;10.25;10.25;;;;;;;;5058020;28;9004;-81
2022/05/03 09:52:05;;;;;;;;;11.50;11.00;;;;;;;;5050321;28;8867;-81
2022/05/03 09:54:47;;;;;;;;;12.75;12.75;;;;;;;;5064967;28;8878;-81
2022/05/03 09:57:22;;;;;;;;;11.25;9.75;;;;;;;;5041594;28;8866;-81
2022/05/03 09:59:50;;;;;;;;;9.75;7.50;;;;;;;;5034486;28;9554;-80
2022/05/03 10:02:19;;;;;;;;;15.25;11.00;;;;;;;;5046396;28;8848;-80
2022/05/03 10:04:47;;;;;;;;;9.25;9.25;;;;;;;;5043577;28;8893;-80
2022/05/03 10:07:15;;;;;;;;;7.25;7.25;;;;;;;;5035038;28;8896;-80
2022/05/03 10:09:43;;;;;;;;;10.25;9.75;;;;;;;;5043193;28;8877;-81
2022/05/03 10:12:13;;;;;;;;;8.50;8.50;;;;;;;;5043725;28;9726;-80
2022/05/03 10:14:42;;;;;;;;;8.80;7.20;;;;;;;;5057440;28;8877;-81
2022/05/03 10:22:44;;;;;;;;;7.25;5.50;;;;;;;;5038465;28;8873;-81
2022/05/03 10:25:11;;;;;;;;;6.00;6.00;;;;;;;;5057059;28;9649;-81
2022/05/03 10:27:54;;;;;;;;;6.80;6.80;;;;;;;;5049304;28;8841;-80
2022/05/03 10:30:24;;;;;;;;;10.00;7.80;;;;;;;;5036189;28;8905;-79
2022/05/03 10:33:29;;;;;;;;;4.60;4.60;;;;;;;;5038661;28;9230;-80
2022/05/03 10:35:56;;;;;;;;;4.20;4.20;;;;;;;;5033980;28;9024;-79
2022/05/03 10:38:40;;;;;;;;;5.60;5.60;;;;;;;;5044580;28;8919;-80
2022/05/03 10:41:08;;;;;;;;;3.80;3.80;;;;;;;;5043087;28;8889;-79
2022/05/03 10:43:37;;;;;;;;;4.00;4.00;;;;;;;;5043979;28;8901;-80
2022/05/03 10:46:13;;;;;;;;;4.20;4.20;;;;;;;;5057439;28;8894;-81
2022/05/03 10:48:43;;;;;;;;;5.40;5.40;;;;;;;;5041177;28;8873;-82
2022/05/03 10:51:12;;;;;;;;;4.00;4.00;;;;;;;;5041620;28;8967;-81
2022/05/03 10:53:42;;;;;;;;;6.00;4.20;;;;;;;;5043214;28;8877;-81
2022/05/03 10:56:20;;;;;;;;;3.00;3.00;;;;;;;;5043092;28;8908;-82
2022/05/03 10:59:14;;;;;;;;;4.60;4.60;;;;;;;;5047605;28;8854;-77
2022/05/03 11:02:16;;;;;;;;;6.60;5.20;;;;;;;;5045083;28;8840;-79
2022/05/03 11:05:16;;;;;;;;;3.40;3.40;;;;;;;;4995049;28;8918;-79
2022/05/03 11:08:16;;;;;;;;;5.00;5.00;;;;;;;;4995943;28;8945;-79
2022/05/03 11:10:44;;;;;;;;;2.20;2.20;;;;;;;;5034394;28;9399;-80
2022/05/03 11:13:40;;;;;;;;;3.40;3.00;;;;;;;;5040482;28;8908;-80
2022/05/03 11:16:35;;;;;;;;;3.00;3.00;;;;;;;;5046791;28;8865;-80
2022/05/03 11:19:11;;;;;;;;;4.80;4.80;;;;;;;;4996144;28;8994;-81
2022/05/03 11:21:38;;;;;;;;;4.20;4.20;;;;;;;;5049876;28;8891;-80
2022/05/03 11:24:07;;;;;;;;;6.00;6.00;;;;;;;;5041000;28;8968;-80
2022/05/03 11:26:34;;;;;;;;;5.00;5.00;;;;;;;;5045897;28;8886;-79
2022/05/03 11:29:04;;;;;;;;;4.00;4.00;;;;;;;;5059641;28;8859;-80
2022/05/03 11:31:31;;;;;;;;;5.40;5.40;;;;;;;;5049125;28;8822;-80
2022/05/03 11:33:59;;;;;;;;;9.20;5.80;;;;;;;;5041975;28;8857;-81
2022/05/03 11:36:30;;;;;;;;;4.00;4.00;;;;;;;;5032055;28;8871;-82
2022/05/03 11:38:58;;;;;;;;;4.00;4.00;;;;;;;;5034763;28;8861;-82
2022/05/03 11:41:27;;;;;;;;;5.00;4.00;;;;;;;;5037471;28;8864;-79
2022/05/03 11:43:54;;;;;;;;;4.20;4.20;;;;;;;;5040978;28;8869;-80
2022/05/03 11:46:23;;;;;;;;;3.00;3.00;;;;;;;;5045760;28;8942;-82
2022/05/03 11:48:54;;;;;;;;;3.00;3.00;;;;;;;;5036120;28;8895;-87
2022/05/03 11:57:07;;;;;;;;;4.00;4.00;;;;;;;;5035319;28;8822;-81
2022/05/03 11:59:35;;;;;;;;;3.00;3.00;;;;;;;;5045954;28;8827;-82
2022/05/03 12:02:17;;;;;;;;;4.00;4.00;;;;;;;;5036468;28;8830;-81
2022/05/03 12:05:00;;;;;;;;;4.00;4.00;;;;;;;;5033007;28;8877;-88
2022/05/03 12:07:27;;;;;;;;;3.60;3.60;;;;;;;;5024795;28;8956;-83
2022/05/03 12:09:56;;;;;;;;;3.40;3.40;;;;;;;;5035420;28;8877;-84
2022/05/03 12:15:19;;;;;;;;;3.40;3.00;;;;;;;;5038384;28;8865;-83
2022/05/03 12:17:55;;;;;;;;;2.60;2.60;;;;;;;;5030934;28;8921;-81
2022/05/03 12:20:26;;;;;;;;;4.60;2.80;;;;;;;;5038140;28;8866;-86
2022/05/03 12:23:09;;;;;;;;;4.60;3.20;;;;;;;;5034183;28;8865;-84
2022/05/03 12:25:38;;;;;;;;;3.20;3.20;;;;;;;;5037530;28;8881;-82
2022/05/03 12:28:07;;;;;;;;;3.20;3.20;;;;;;;;5027807;28;8872;-84
2022/05/03 12:30:35;;;;;;;;;4.20;4.20;;;;;;;;5031720;28;8799;-87
2022/05/03 12:33:04;;;;;;;;;2.80;2.80;;;;;;;;5027841;28;8880;-85
2022/05/03 12:35:33;;;;;;;;;2.80;2.80;;;;;;;;5030699;28;8868;-85
2022/05/03 12:38:09;;;;;;;;;2.80;2.80;;;;;;;;5025207;28;8889;-82
2022/05/03 12:40:46;;;;;;;;;2.00;2.00;;;;;;;;5034679;28;8860;-83
2022/05/03 12:43:14;;;;;;;;;1.80;1.80;;;;;;;;5036065;28;8860;-85
2022/05/03 12:45:42;;;;;;;;;4.00;2.60;;;;;;;;5042202;28;8865;-81
2022/05/03 12:48:10;;;;;;;;;2.20;1.80;;;;;;;;5031626;28;8881;-84
2022/05/03 12:50:39;;;;;;;;;3.00;3.00;;;;;;;;5026214;28;8881;-85
2022/05/03 12:53:06;;;;;;;;;3.00;3.00;;;;;;;;5030814;28;8892;-80
2022/05/03 12:55:33;;;;;;;;;2.40;2.40;;;;;;;;5040096;28;8877;-85
2022/05/03 13:00:47;;;;;;;;;3.80;2.40;;;;;;;;5041019;28;8972;-83
2022/05/03 13:03:15;;;;;;;;;4.00;4.00;;;;;;;;5027636;28;8902;-87
2022/05/03 13:05:43;;;;;;;;;3.00;3.00;;;;;;;;5036415;28;8949;-81
2022/05/03 13:08:10;;;;;;;;;3.80;3.80;;;;;;;;5030595;28;8888;-83
2022/05/03 13:10:39;;;;;;;;;3.00;3.00;;;;;;;;5028905;28;8869;-83
2022/05/03 13:13:08;;;;;;;;;5.00;5.00;;;;;;;;5034421;28;8875;-77
2022/05/03 13:15:35;;;;;;;;;1.80;1.80;;;;;;;;5033708;28;8888;-82
2022/05/03 13:18:03;;;;;;;;;1.80;1.80;;;;;;;;5042301;28;8992;-81
2022/05/03 13:20:31;;;;;;;;;3.20;2.20;;;;;;;;5029523;28;8889;-81
2022/05/03 13:22:59;;;;;;;;;2.60;2.60;;;;;;;;5034660;28;8864;-81
2022/05/03 13:25:27;;;;;;;;;2.80;2.80;;;;;;;;5034856;28;8905;-77
2022/05/03 13:27:54;;;;;;;;;2.80;2.80;;;;;;;;5039716;28;8986;-82
2022/05/03 13:30:24;;;;;;;;;1.80;1.80;;;;;;;;5034192;28;8893;-80
2022/05/03 13:32:51;;;;;;;;;2.00;2.00;;;;;;;;5038424;28;8872;-81
2022/05/03 13:40:28;;;;;;;;;1.60;1.60;;;;;;;;5027908;28;8887;-82
2022/05/03 13:40:52;;;;;;;;;1.40;1.40;;;;;;;;5042424;28;8854;-86
2022/05/03 13:43:20;;;;;;;;;2.40;2.40;;;;;;;;5035935;28;8891;-84
2022/05/03 13:45:49;;;;;;;;;1.80;1.80;;;;;;;;5045244;28;9001;-83
2022/05/03 13:48:17;;;;;;;;;1.80;1.80;;;;;;;;5047245;28;9450;-85
2022/05/03 13:50:44;;;;;;;;;3.00;3.00;;;;;;;;5031763;28;8856;-84
2022/05/03 13:53:12;;;;;;;;;1.00;1.00;;;;;;;;5049768;28;8888;-86
2022/05/03 13:55:40;;;;;;;;;3.00;3.00;;;;;;;;5039867;28;8893;-87
2022/05/03 13:58:08;;;;;;;;;4.00;4.00;;;;;;;;5028436;28;8893;-87
2022/05/03 14:00:36;;;;;;;;;2.40;2.40;;;;;;;;5053361;28;8815;-81
2022/05/03 14:03:07;;;;;;;;;4.00;4.00;;;;;;;;5026832;28;8871;-85
2022/05/03 14:05:35;;;;;;;;;3.00;3.00;;;;;;;;5040807;28;8987;-86
2022/05/03 14:08:02;;;;;;;;;3.40;3.40;;;;;;;;5034682;28;8875;-86
2022/05/03 14:10:31;;;;;;;;;6.60;4.80;;;;;;;;5031367;28;8985;-82
2022/05/03 14:12:59;;;;;;;;;4.20;4.20;;;;;;;;5028006;28;8911;-83
2022/05/03 14:15:26;;;;;;;;;2.80;2.80;;;;;;;;5042144;28;8900;-85
2022/05/03 14:17:53;;;;;;;;;4.80;3.80;;;;;;;;5043168;28;8873;-85
2022/05/03 14:20:23;;;;;;;;;7.20;5.40;;;;;;;;5041320;28;8906;-79
2022/05/03 14:22:50;;;;;;;;;3.80;3.80;;;;;;;;5035826;28;8872;-83
2022/05/03 14:25:18;;;;;;;;;5.80;5.60;;;;;;;;5036234;28;8869;-81
2022/05/03 14:27:46;;;;;;;;;5.20;5.20;;;;;;;;5029799;28;8867;-81
2022/05/03 14:30:13;;;;;;;;;5.80;3.80;;;;;;;;5032148;28;8881;-82
2022/05/03 14:32:41;;;;;;;;;6.20;5.00;;;;;;;;5046212;28;8845;-80
2022/05/03 14:35:09;;;;;;;;;5.80;5.80;;;;;;;;5031902;28;9003;-81
2022/05/03 14:37:38;;;;;;;;;5.80;5.80;;;;;;;;5035365;28;10026;-82
2022/05/03 14:40:07;;;;;;;;;6.60;6.00;;;;;;;;5039329;28;8889;-81
2022/05/03 14:42:34;;;;;;;;;7.00;7.00;;;;;;;;5040564;28;8857;-81
2022/05/03 14:45:01;;;;;;;;;5.80;5.80;;;;;;;;5035011;28;8851;-81
2022/05/03 14:47:28;;;;;;;;;6.60;6.60;;;;;;;;5044832;28;8873;-81
2022/05/03 14:49:56;;;;;;;;;5.80;5.00;;;;;;;;5031870;28;8876;-81
2022/05/03 14:52:23;;;;;;;;;6.60;6.60;;;;;;;;5043019;28;8881;-82
2022/05/03 14:54:52;;;;;;;;;6.20;6.00;;;;;;;;5034952;28;8962;-82
2022/05/03 15:02:54;;;;;;;;;8.00;8.00;;;;;;;;5040213;28;8857;-83
2022/05/03 15:05:22;;;;;;;;;7.00;7.00;;;;;;;;5026726;28;8978;-77
2022/05/03 15:07:49;;;;;;;;;9.80;8.00;;;;;;;;5032275;28;8877;-82
2022/05/03 15:10:19;;;;;;;;;10.00;8.60;;;;;;;;5027606;28;8900;-86
2022/05/03 15:12:47;;;;;;;;;9.40;9.40;;;;;;;;5035823;28;8873;-82
2022/05/03 15:15:16;;;;;;;;;8.20;7.40;;;;;;;;5035968;28;8883;-82
2022/05/03 15:17:45;;;;;;;;;6.20;6.20;;;;;;;;5041353;28;8866;-86
2022/05/03 15:20:13;;;;;;;;;8.20;8.20;;;;;;;;5039025;28;8892;-84
2022/05/03 15:25:27;;;;;;;;;8.80;8.80;;;;;;;;5037885;28;8849;-81
2022/05/03 15:27:55;;;;;;;;;7.20;5.80;;;;;;;;5036025;28;8871;-84
2022/05/03 15:30:23;;;;;;;;;9.40;8.60;;;;;;;;5039330;28;8788;-84
2022/05/03 15:32:52;;;;;;;;;11.60;8.80;;;;;;;;5038418;28;8884;-82
2022/05/03 15:35:20;;;;;;;;;10.00;8.60;;;;;;;;5032473;28;8885;-80
2022/05/03 15:37:48;;;;;;;;;8.80;8.80;;;;;;;;5029308;28;8854;-84
2022/05/03 15:40:15;;;;;;;;;8.40;8.00;;;;;;;;5040775;28;8910;-84
2022/05/03 15:42:44;;;;;;;;;8.60;8.60;;;;;;;;5030897;28;8888;-82
2022/05/03 15:45:12;;;;;;;;;8.80;8.80;;;;;;;;5036359;28;8969;-83
2022/05/03 15:47:41;;;;;;;;;8.60;8.60;;;;;;;;5039868;28;8897;-89